IGO304 VOBL-VOTR
Flight info
| Callsign | IGO304 |
|---|---|
| Flight time | 0h 33m |
| Altitude | 27000 |
| Route | AKTIM7B AKTIM V45 TTR |
| Aircraft | A320/M-SDE3FGHIRWY/LB1 |
Departure
| Time | 2026-05-05 17:29 |
|---|---|
| Airport | Kempegowda International Airport Bengaluru (VOBL) |
Arrival
| Time | 2026-05-05 18:02 |
|---|---|
| Airport | Tiruchirappalli International Airport (VOTR) |
| Time | Latitude | Longitude | Altitude | Speed | Heading |
|---|---|---|---|---|---|
| 2026-05-05 17:21 | 13.20171 | 77.70797 | 3011 ft | 0 kts | 180° |
| 2026-05-05 17:21 | 13.20184 | 77.70797 | 3011 ft | 4 kts | 178° |
| 2026-05-05 17:22 | 13.20235 | 77.70785 | 3011 ft | 4 kts | 135° |
| 2026-05-05 17:22 | 13.20244 | 77.70769 | 3011 ft | 1 kts | 91° |
| 2026-05-05 17:22 | 13.20244 | 77.70766 | 3011 ft | 0 kts | 91° |
| 2026-05-05 17:23 | 13.20243 | 77.70789 | 3011 ft | 10 kts | 91° |
| 2026-05-05 17:24 | 13.20243 | 77.70881 | 3011 ft | 14 kts | 90° |
| 2026-05-05 17:24 | 13.20242 | 77.70988 | 3011 ft | 16 kts | 90° |
| 2026-05-05 17:24 | 13.20241 | 77.71109 | 3011 ft | 18 kts | 90° |
| 2026-05-05 17:24 | 13.20240 | 77.71233 | 3011 ft | 14 kts | 91° |
| 2026-05-05 17:25 | 13.20310 | 77.71276 | 3011 ft | 14 kts | 360° |
| 2026-05-05 17:25 | 13.20379 | 77.71277 | 3011 ft | 16 kts | 1° |
| 2026-05-05 17:25 | 13.20518 | 77.71312 | 3011 ft | 17 kts | 64° |
| 2026-05-05 17:25 | 13.20524 | 77.71437 | 3011 ft | 18 kts | 87° |
| 2026-05-05 17:26 | 13.20522 | 77.71575 | 3012 ft | 20 kts | 91° |
| 2026-05-05 17:26 | 13.20521 | 77.71727 | 3012 ft | 22 kts | 90° |
| 2026-05-05 17:26 | 13.20520 | 77.71894 | 3012 ft | 24 kts | 90° |
| 2026-05-05 17:26 | 13.20518 | 77.72019 | 3012 ft | 14 kts | 91° |
| 2026-05-05 17:27 | 13.20517 | 77.72126 | 3012 ft | 16 kts | 90° |
| 2026-05-05 17:27 | 13.20568 | 77.72203 | 3012 ft | 15 kts | 355° |
| 2026-05-05 17:27 | 13.20667 | 77.72201 | 3012 ft | 13 kts | 356° |
| 2026-05-05 17:27 | 13.20691 | 77.72127 | 3012 ft | 13 kts | 269° |
| 2026-05-05 17:28 | 13.20691 | 77.72113 | 3012 ft | 2 kts | 270° |
| 2026-05-05 17:28 | 13.20691 | 77.72067 | 3011 ft | 25 kts | 270° |
| 2026-05-05 17:28 | 13.20694 | 77.71623 | 3012 ft | 96 kts | 270° |
| 2026-05-05 17:28 | 13.20701 | 77.70746 | 3012 ft | 147 kts | 271° |
| 2026-05-05 17:29 | 13.20708 | 77.69574 | 3276 ft | 170 kts | 271° |
| 2026-05-05 17:29 | 13.20908 | 77.68362 | 3959 ft | 175 kts | 286° |
| 2026-05-05 17:29 | 13.21402 | 77.67194 | 4456 ft | 185 kts | 300° |
| 2026-05-05 17:29 | 13.22109 | 77.65993 | 4673 ft | 207 kts | 300° |
| 2026-05-05 17:30 | 13.22900 | 77.64648 | 4915 ft | 232 kts | 300° |
| 2026-05-05 17:30 | 13.23478 | 77.63034 | 5234 ft | 255 kts | 274° |
| 2026-05-05 17:30 | 13.23135 | 77.61187 | 5604 ft | 276 kts | 240° |
| 2026-05-05 17:30 | 13.21766 | 77.59796 | 6267 ft | 285 kts | 206° |
| 2026-05-05 17:31 | 13.19839 | 77.59317 | 6997 ft | 290 kts | 184° |
| 2026-05-05 17:31 | 13.17813 | 77.59225 | 7822 ft | 293 kts | 180° |
| 2026-05-05 17:31 | 13.15762 | 77.59231 | 8635 ft | 297 kts | 179° |
| 2026-05-05 17:31 | 13.13679 | 77.59266 | 9440 ft | 301 kts | 178° |
| 2026-05-05 17:32 | 13.11564 | 77.59296 | 10182 ft | 308 kts | 179° |
| 2026-05-05 17:32 | 13.09338 | 77.59312 | 10455 ft | 332 kts | 179° |
| 2026-05-05 17:32 | 13.06950 | 77.59310 | 10644 ft | 355 kts | 180° |
| 2026-05-05 17:32 | 13.04416 | 77.59291 | 10911 ft | 372 kts | 180° |
| 2026-05-05 17:33 | 13.01801 | 77.59259 | 11472 ft | 378 kts | 180° |
| 2026-05-05 17:33 | 12.99192 | 77.59227 | 12108 ft | 382 kts | 180° |
| 2026-05-05 17:33 | 12.96523 | 77.59196 | 12774 ft | 385 kts | 180° |
| 2026-05-05 17:33 | 12.93833 | 77.59166 | 13434 ft | 389 kts | 180° |
| 2026-05-05 17:34 | 12.91114 | 77.59137 | 14054 ft | 392 kts | 180° |
| 2026-05-05 17:34 | 12.88367 | 77.59110 | 14631 ft | 395 kts | 180° |
| 2026-05-05 17:34 | 12.85608 | 77.59084 | 15243 ft | 397 kts | 180° |
| 2026-05-05 17:34 | 12.82835 | 77.59057 | 15824 ft | 400 kts | 180° |
| 2026-05-05 17:35 | 12.80039 | 77.59028 | 16414 ft | 403 kts | 180° |
| 2026-05-05 17:35 | 12.77232 | 77.58999 | 17031 ft | 404 kts | 180° |
| 2026-05-05 17:35 | 12.74420 | 77.58971 | 17655 ft | 405 kts | 181° |
| 2026-05-05 17:35 | 12.71592 | 77.58941 | 18278 ft | 407 kts | 181° |
| 2026-05-05 17:36 | 12.68750 | 77.58912 | 18814 ft | 408 kts | 181° |
| 2026-05-05 17:36 | 12.65908 | 77.58882 | 19318 ft | 411 kts | 181° |
| 2026-05-05 17:36 | 12.63038 | 77.58854 | 19804 ft | 413 kts | 181° |
| 2026-05-05 17:36 | 12.60159 | 77.58824 | 20244 ft | 417 kts | 181° |
| 2026-05-05 17:37 | 12.57241 | 77.58794 | 20688 ft | 420 kts | 181° |
| 2026-05-05 17:37 | 12.55305 | 77.58774 | 20973 ft | 422 kts | 181° |
| 2026-05-05 17:37 | 12.51363 | 77.58731 | 21554 ft | 426 kts | 181° |
| 2026-05-05 17:37 | 12.48415 | 77.58699 | 21968 ft | 429 kts | 181° |
| 2026-05-05 17:38 | 12.45428 | 77.58668 | 22367 ft | 432 kts | 181° |
| 2026-05-05 17:38 | 12.42400 | 77.58637 | 22770 ft | 435 kts | 181° |
| 2026-05-05 17:38 | 12.39364 | 77.58606 | 23159 ft | 438 kts | 181° |
| 2026-05-05 17:38 | 12.36316 | 77.58785 | 23518 ft | 442 kts | 170° |
| 2026-05-05 17:39 | 12.33401 | 77.59748 | 23821 ft | 446 kts | 156° |
| 2026-05-05 17:39 | 12.30583 | 77.61158 | 24134 ft | 449 kts | 155° |
| 2026-05-05 17:39 | 12.27784 | 77.62587 | 24442 ft | 451 kts | 154° |
| 2026-05-05 17:39 | 12.25008 | 77.64101 | 24746 ft | 454 kts | 148° |
| 2026-05-05 17:40 | 12.22518 | 77.66111 | 25038 ft | 457 kts | 140° |
| 2026-05-05 17:40 | 12.20920 | 77.67504 | 25235 ft | 459 kts | 140° |
| 2026-05-05 17:40 | 12.18486 | 77.69636 | 25544 ft | 461 kts | 140° |
| 2026-05-05 17:40 | 12.16052 | 77.71775 | 25848 ft | 463 kts | 140° |
| 2026-05-05 17:41 | 12.13601 | 77.73929 | 26142 ft | 465 kts | 140° |
| 2026-05-05 17:41 | 12.11150 | 77.76078 | 26382 ft | 465 kts | 140° |
| 2026-05-05 17:41 | 12.08688 | 77.78234 | 26616 ft | 467 kts | 140° |
| 2026-05-05 17:41 | 12.06220 | 77.80393 | 26844 ft | 468 kts | 140° |
| 2026-05-05 17:42 | 12.03736 | 77.82565 | 26954 ft | 471 kts | 140° |
| 2026-05-05 17:42 | 12.01234 | 77.84751 | 26981 ft | 475 kts | 140° |
| 2026-05-05 17:42 | 11.98719 | 77.86948 | 26969 ft | 475 kts | 140° |
| 2026-05-05 17:42 | 11.96199 | 77.89150 | 26965 ft | 475 kts | 140° |
| 2026-05-05 17:43 | 11.93691 | 77.91346 | 26964 ft | 475 kts | 140° |
| 2026-05-05 17:43 | 11.91180 | 77.93542 | 26966 ft | 475 kts | 140° |
| 2026-05-05 17:43 | 11.88663 | 77.95738 | 26967 ft | 475 kts | 140° |
| 2026-05-05 17:43 | 11.86155 | 77.97925 | 26954 ft | 475 kts | 140° |
| 2026-05-05 17:44 | 11.83648 | 78.00108 | 26754 ft | 474 kts | 140° |
| 2026-05-05 17:44 | 11.81161 | 78.02275 | 26271 ft | 464 kts | 140° |
| 2026-05-05 17:44 | 11.78734 | 78.04392 | 25797 ft | 455 kts | 140° |
| 2026-05-05 17:44 | 11.76342 | 78.06477 | 25295 ft | 448 kts | 140° |
| 2026-05-05 17:45 | 11.73989 | 78.08529 | 24801 ft | 442 kts | 140° |
| 2026-05-05 17:45 | 11.71674 | 78.10549 | 24316 ft | 435 kts | 140° |
| 2026-05-05 17:45 | 11.69384 | 78.12548 | 23839 ft | 430 kts | 140° |
| 2026-05-05 17:45 | 11.67130 | 78.14519 | 23334 ft | 425 kts | 140° |
| 2026-05-05 17:46 | 11.64888 | 78.16475 | 22766 ft | 421 kts | 140° |
| 2026-05-05 17:46 | 11.62702 | 78.18378 | 22221 ft | 417 kts | 140° |
| 2026-05-05 17:46 | 11.60503 | 78.20290 | 21671 ft | 414 kts | 140° |
| 2026-05-05 17:46 | 11.58327 | 78.22184 | 21139 ft | 411 kts | 140° |
| 2026-05-05 17:47 | 11.56162 | 78.24076 | 20659 ft | 407 kts | 140° |
| 2026-05-05 17:47 | 11.54051 | 78.25978 | 20186 ft | 403 kts | 139° |
| 2026-05-05 17:47 | 11.51984 | 78.27883 | 19745 ft | 398 kts | 138° |
| 2026-05-05 17:47 | 11.49952 | 78.29778 | 19311 ft | 393 kts | 138° |
| 2026-05-05 17:48 | 11.47954 | 78.31644 | 18883 ft | 388 kts | 138° |
| 2026-05-05 17:48 | 11.45967 | 78.33493 | 18467 ft | 383 kts | 138° |
| 2026-05-05 17:48 | 11.44004 | 78.35312 | 17994 ft | 379 kts | 139° |
| 2026-05-05 17:48 | 11.42062 | 78.37103 | 17528 ft | 375 kts | 138° |
| 2026-05-05 17:49 | 11.40134 | 78.38879 | 17045 ft | 371 kts | 138° |
| 2026-05-05 17:49 | 11.38229 | 78.40631 | 16572 ft | 368 kts | 138° |
| 2026-05-05 17:49 | 11.36338 | 78.42369 | 16116 ft | 364 kts | 137° |
| 2026-05-05 17:49 | 11.34467 | 78.44092 | 15661 ft | 361 kts | 137° |
| 2026-05-05 17:50 | 11.32612 | 78.45798 | 15236 ft | 357 kts | 137° |
| 2026-05-05 17:50 | 11.30768 | 78.47494 | 14866 ft | 358 kts | 137° |
| 2026-05-05 17:50 | 11.28943 | 78.49174 | 14498 ft | 358 kts | 137° |
| 2026-05-05 17:50 | 11.27099 | 78.50871 | 14094 ft | 356 kts | 137° |
| 2026-05-05 17:51 | 11.25267 | 78.52553 | 13692 ft | 353 kts | 137° |
| 2026-05-05 17:51 | 11.23421 | 78.54244 | 13219 ft | 351 kts | 137° |
| 2026-05-05 17:51 | 11.21636 | 78.55882 | 12769 ft | 348 kts | 137° |
| 2026-05-05 17:51 | 11.19839 | 78.57530 | 12324 ft | 346 kts | 137° |
| 2026-05-05 17:52 | 11.18061 | 78.59163 | 11881 ft | 344 kts | 137° |
| 2026-05-05 17:52 | 11.16293 | 78.60786 | 11451 ft | 341 kts | 137° |
| 2026-05-05 17:52 | 11.14530 | 78.62401 | 10982 ft | 340 kts | 137° |
| 2026-05-05 17:52 | 11.12777 | 78.64010 | 10514 ft | 339 kts | 136° |
| 2026-05-05 17:53 | 11.11029 | 78.65617 | 10051 ft | 338 kts | 136° |
| 2026-05-05 17:53 | 11.09283 | 78.67221 | 9568 ft | 337 kts | 136° |
| 2026-05-05 17:53 | 11.07547 | 78.68813 | 9073 ft | 336 kts | 136° |
| 2026-05-05 17:53 | 11.05814 | 78.70403 | 8578 ft | 334 kts | 136° |
| 2026-05-05 17:54 | 11.04093 | 78.71983 | 8091 ft | 333 kts | 137° |
| 2026-05-05 17:54 | 11.02375 | 78.73561 | 7610 ft | 332 kts | 137° |
| 2026-05-05 17:54 | 11.00662 | 78.75131 | 7140 ft | 330 kts | 137° |
| 2026-05-05 17:54 | 10.98961 | 78.76687 | 6715 ft | 328 kts | 137° |
| 2026-05-05 17:55 | 10.97276 | 78.78231 | 6325 ft | 324 kts | 137° |
| 2026-05-05 17:55 | 10.95608 | 78.79761 | 5910 ft | 321 kts | 137° |
| 2026-05-05 17:55 | 10.93956 | 78.81277 | 5508 ft | 318 kts | 137° |
| 2026-05-05 17:55 | 10.92320 | 78.82776 | 5104 ft | 315 kts | 137° |
| 2026-05-05 17:56 | 10.90702 | 78.84256 | 4705 ft | 312 kts | 137° |
| 2026-05-05 17:56 | 10.89092 | 78.85728 | 4294 ft | 309 kts | 137° |
| 2026-05-05 17:56 | 10.87500 | 78.87189 | 3880 ft | 307 kts | 138° |
| 2026-05-05 17:56 | 10.85938 | 78.88620 | 3479 ft | 304 kts | 138° |
| 2026-05-05 17:57 | 10.84371 | 78.90055 | 3096 ft | 301 kts | 138° |
| 2026-05-05 17:57 | 10.82846 | 78.91452 | 2995 ft | 288 kts | 139° |
| 2026-05-05 17:57 | 10.81258 | 78.92589 | 2893 ft | 274 kts | 160° |
| 2026-05-05 17:57 | 10.79425 | 78.92712 | 2774 ft | 263 kts | 195° |
| 2026-05-05 17:58 | 10.77929 | 78.91754 | 2685 ft | 253 kts | 231° |
| 2026-05-05 17:58 | 10.77351 | 78.90146 | 2703 ft | 240 kts | 270° |
| 2026-05-05 17:58 | 10.77745 | 78.88558 | 2702 ft | 226 kts | 289° |
| 2026-05-05 17:58 | 10.77964 | 78.87062 | 2667 ft | 208 kts | 260° |
| 2026-05-05 17:59 | 10.77729 | 78.85648 | 2580 ft | 198 kts | 262° |
| 2026-05-05 17:59 | 10.77605 | 78.84297 | 2403 ft | 187 kts | 264° |
| 2026-05-05 17:59 | 10.77503 | 78.83003 | 2164 ft | 179 kts | 264° |
| 2026-05-05 17:59 | 10.77406 | 78.81769 | 1949 ft | 168 kts | 264° |
| 2026-05-05 18:00 | 10.77320 | 78.80663 | 1749 ft | 149 kts | 264° |
| 2026-05-05 18:00 | 10.77239 | 78.79638 | 1566 ft | 142 kts | 264° |
| 2026-05-05 18:00 | 10.77161 | 78.78649 | 1377 ft | 140 kts | 264° |
| 2026-05-05 18:00 | 10.77084 | 78.77667 | 1200 ft | 138 kts | 264° |
| 2026-05-05 18:01 | 10.77008 | 78.76703 | 1031 ft | 138 kts | 264° |
| 2026-05-05 18:01 | 10.76930 | 78.75725 | 843 ft | 139 kts | 264° |
| 2026-05-05 18:01 | 10.76856 | 78.74746 | 656 ft | 140 kts | 265° |
| 2026-05-05 18:01 | 10.76783 | 78.73758 | 471 ft | 140 kts | 265° |
| 2026-05-05 18:02 | 10.76699 | 78.72770 | 326 ft | 141 kts | 265° |
| 2026-05-05 18:02 | 10.76633 | 78.71899 | 312 ft | 100 kts | 264° |
| 2026-05-05 18:02 | 10.76591 | 78.71365 | 311 ft | 51 kts | 264° |
| 2026-05-05 18:02 | 10.76562 | 78.71027 | 310 ft | 39 kts | 266° |
| 2026-05-05 18:03 | 10.76534 | 78.70919 | 312 ft | 4 kts | 185° |
| 2026-05-05 18:03 | 10.76475 | 78.70943 | 311 ft | 13 kts | 149° |
| 2026-05-05 18:03 | 10.76384 | 78.71001 | 310 ft | 17 kts | 147° |
| 2026-05-05 18:03 | 10.76271 | 78.71070 | 310 ft | 20 kts | 149° |
| 2026-05-05 18:04 | 10.76157 | 78.71142 | 308 ft | 16 kts | 136° |
| 2026-05-05 18:04 | 10.76140 | 78.71211 | 308 ft | 7 kts | 86° |
| 2026-05-05 18:04 | 10.76125 | 78.71256 | 309 ft | 9 kts | 160° |
| 2026-05-05 18:04 | 10.76090 | 78.71259 | 307 ft | 5 kts | 174° |
| 2026-05-05 18:05 | 10.76084 | 78.71259 | 308 ft | 0 kts | 174° |